Time;durP1;ratioP1;P1;durP2;ratioP2;P2;SDS_P1;SDS_P2;PMS_P1;PMS_P2;Temp;Humidity;BMP_temperature;BMP_pressure;BME280_temperature;BME280_humidity;BME280_pressure;Samples;Min_cycle;Max_cycle;Signal;HPM_P1;HPM_P2
2024/04/07 00:01:31;;;;;;;10.02;5.28;;;14.00;99.90;;;;;;5011226;28;20038;-72
2024/04/07 00:04:01;;;;;;;12.98;7.05;;;14.00;99.90;;;;;;5026440;28;20026;-73
2024/04/07 00:06:31;;;;;;;17.52;9.07;;;13.90;99.90;;;;;;5011298;28;20029;-72
2024/04/07 00:09:00;;;;;;;12.07;7.13;;;14.00;99.90;;;;;;5009849;28;20128;-73
2024/04/07 00:11:26;;;;;;;14.48;8.02;;;14.00;99.90;;;;;;5009912;28;20051;-74
2024/04/07 00:13:54;;;;;;;11.15;5.18;;;14.00;99.90;;;;;;5009848;28;20029;-74
2024/04/07 00:16:20;;;;;;;7.57;4.10;;;14.00;99.90;;;;;;5011182;28;20034;-73
2024/04/07 00:18:46;;;;;;;12.45;3.58;;;14.00;99.90;;;;;;5010983;28;20049;-73
2024/04/07 00:21:12;;;;;;;7.38;4.07;;;14.00;99.90;;;;;;5010953;28;20100;-73
2024/04/07 00:23:38;;;;;;;7.85;4.55;;;14.00;99.90;;;;;;5009620;28;20490;-73
2024/04/07 00:26:04;;;;;;;7.05;3.42;;;13.90;99.90;;;;;;5009638;28;20041;-73
2024/04/07 00:28:30;;;;;;;5.90;3.15;;;13.90;99.90;;;;;;5009929;28;20022;-73
2024/04/07 00:30:56;;;;;;;;;;;13.80;99.90;;;;;;5011153;28;20025;-72
2024/04/07 00:33:21;;;;;;;9.45;4.68;;;13.70;99.90;;;;;;5025944;28;19909;-74
2024/04/07 00:35:53;;;;;;;;;;;13.70;99.90;;;;;;5009915;28;20383;-74
2024/04/07 00:38:19;;;;;;;5.72;3.25;;;13.60;99.90;;;;;;5025807;28;19917;-73
2024/04/07 00:40:44;;;;;;;;;;;13.50;99.90;;;;;;5010969;28;20034;-73
2024/04/07 00:43:10;;;;;;;3.72;2.10;;;13.50;99.90;;;;;;5025768;28;19913;-74
2024/04/07 00:45:36;;;;;;;3.80;1.40;;;13.50;99.90;;;;;;5009587;28;20657;-73
2024/04/07 00:48:01;;;;;;;6.55;1.60;;;13.50;99.90;;;;;;5010686;28;20426;-73
2024/04/07 00:50:27;;;;;;;;;;;13.40;99.90;;;;;;5010987;28;20041;-73
2024/04/07 00:52:54;;;;;;;2.78;0.73;;;13.40;99.90;;;;;;5025380;28;19910;-74
2024/04/07 00:55:20;;;;;;;5.28;1.15;;;13.40;99.90;;;;;;5009358;28;20060;-73
2024/04/07 00:57:47;;;;;;;3.85;1.10;;;13.40;99.90;;;;;;5010642;28;20467;-73
2024/04/07 01:00:12;;;;;;;2.72;0.82;;;13.50;99.90;;;;;;5010639;28;20032;-74
2024/04/07 01:02:38;;;;;;;2.78;0.82;;;13.60;99.90;;;;;;5025219;28;20141;-73
2024/04/07 01:05:04;;;;;;;4.40;0.93;;;13.60;99.90;;;;;;5010242;28;20026;-73
2024/04/07 01:07:31;;;;;;;4.25;1.20;;;13.70;99.90;;;;;;5025353;28;20034;-73
2024/04/07 01:09:58;;;;;;;3.25;1.00;;;13.80;99.90;;;;;;5010368;28;20109;-73
2024/04/07 01:12:24;;;;;;;6.53;1.52;;;13.80;99.90;;;;;;5010158;28;20052;-73
2024/04/07 01:14:49;;;;;;;2.03;0.70;;;13.80;99.90;;;;;;5010045;28;20554;-73
2024/04/07 01:17:16;;;;;;;2.80;0.95;;;13.80;99.90;;;;;;5010149;28;20399;-73
2024/04/07 01:19:42;;;;;;;5.68;1.20;;;14.00;99.90;;;;;;5009870;28;20506;-73
2024/04/07 01:22:08;;;;;;;2.70;0.90;;;14.10;99.90;;;;;;5009709;28;20600;-73
2024/04/07 01:24:33;;;;;;;3.88;0.85;;;14.10;99.90;;;;;;5025131;28;20030;-71
2024/04/07 01:26:59;;;;;;;3.22;0.80;;;14.20;99.90;;;;;;5009928;28;20105;-73
2024/04/07 01:29:25;;;;;;;1.98;0.82;;;14.20;99.90;;;;;;5009916;28;20129;-74
2024/04/07 01:31:51;;;;;;;3.22;0.63;;;14.30;99.90;;;;;;5009848;28;20030;-74
2024/04/07 01:34:16;;;;;;;2.25;0.82;;;14.30;99.90;;;;;;5009946;28;20146;-73
2024/04/07 01:36:44;;;;;;;;;;;14.40;99.90;;;;;;5025432;28;20029;-73
2024/04/07 01:39:10;;;;;;;3.53;0.85;;;14.50;99.90;;;;;;5008580;28;19906;-73
2024/04/07 01:41:35;;;;;;;3.45;1.10;;;14.50;99.90;;;;;;5009615;28;20087;-73
2024/04/07 01:44:01;;;;;;;3.35;0.98;;;14.50;99.90;;;;;;5009163;28;20033;-72
2024/04/07 01:46:26;;;;;;;7.75;0.73;;;14.60;99.90;;;;;;5009579;28;20139;-73
2024/04/07 01:48:52;;;;;;;5.47;0.80;;;14.60;99.90;;;;;;5009772;28;20040;-73
2024/04/07 01:51:18;;;;;;;4.25;0.90;;;14.60;99.90;;;;;;5009667;28;20034;-73
2024/04/07 01:53:43;;;;;;;4.65;0.90;;;14.60;99.90;;;;;;5024935;28;20038;-73
2024/04/07 01:56:09;;;;;;;5.88;0.70;;;14.60;99.90;;;;;;5008381;28;20018;-73
2024/04/07 01:58:37;;;;;;;3.83;0.73;;;14.60;99.90;;;;;;5009669;28;20038;-73
2024/04/07 02:01:04;;;;;;;3.17;0.98;;;14.50;99.90;;;;;;5008051;28;20092;-73
2024/04/07 02:03:29;;;;;;;6.93;1.00;;;14.50;99.90;;;;;;5009603;28;20022;-73
2024/04/07 02:05:55;;;;;;;5.22;0.90;;;14.40;99.90;;;;;;5009446;28;20030;-73
2024/04/07 02:08:21;;;;;;;;;;;14.40;99.90;;;;;;5010102;28;20034;-74
2024/04/07 02:10:50;;;;;;;3.53;0.80;;;14.40;99.90;;;;;;5008433;28;20434;-74
2024/04/07 02:13:15;;;;;;;3.20;0.73;;;14.30;99.90;;;;;;5008182;28;20040;-74
2024/04/07 02:15:42;;;;;;;6.28;1.10;;;14.30;99.90;;;;;;5009509;28;20030;-73
2024/04/07 02:18:08;;;;;;;2.20;0.65;;;14.30;99.90;;;;;;5009262;28;20044;-73
2024/04/07 02:20:34;;;;;;;3.67;1.10;;;14.30;99.90;;;;;;5009373;28;20442;-73
2024/04/07 02:22:59;;;;;;;4.20;1.08;;;14.40;99.90;;;;;;5008010;28;20066;-74
2024/04/07 02:25:26;;;;;;;4.88;1.15;;;14.40;99.90;;;;;;5008169;28;20049;-73
2024/04/07 02:27:52;;;;;;;3.35;0.95;;;14.40;99.90;;;;;;5008090;28;20036;-72
2024/04/07 02:30:17;;;;;;;2.00;0.80;;;14.40;99.90;;;;;;5009350;28;20018;-72
2024/04/07 02:32:43;;;;;;;;;;;14.50;99.90;;;;;;5009726;28;20041;-73
2024/04/07 02:35:08;;;;;;;4.75;1.13;;;14.40;99.90;;;;;;5009177;28;20580;-73
2024/04/07 02:37:34;;;;;;;4.70;1.20;;;14.40;99.90;;;;;;5009585;28;20048;-72
2024/04/07 02:40:00;;;;;;;3.55;1.00;;;14.40;99.90;;;;;;5009427;28;20049;-73
2024/04/07 02:42:26;;;;;;;5.38;1.05;;;14.40;99.90;;;;;;5009031;28;20034;-74
2024/04/07 02:50:20;;;;;;;2.05;0.80;;;14.60;99.90;;;;;;5009086;28;20044;-72
2024/04/07 02:52:46;;;;;;;2.95;0.85;;;14.60;99.90;;;;;;5009080;28;20030;-74
2024/04/07 02:55:11;;;;;;;;;;;14.70;99.90;;;;;;5009609;28;20395;-73
2024/04/07 02:57:37;;;;;;;5.47;0.90;;;14.70;99.90;;;;;;5011662;28;19913;-73
2024/04/07 03:00:03;;;;;;;;;;;14.70;99.90;;;;;;5028658;28;20486;-73
2024/04/07 03:02:28;;;;;;;3.55;1.10;;;14.70;99.90;;;;;;5012789;28;19925;-74
2024/04/07 03:04:54;;;;;;;2.40;0.70;;;14.60;99.90;;;;;;5027756;28;20077;-73
2024/04/07 03:07:20;;;;;;;2.28;0.80;;;14.50;99.90;;;;;;5012542;28;20037;-74
2024/04/07 03:09:45;;;;;;;2.25;0.82;;;14.40;99.90;;;;;;5012457;28;20025;-73
2024/04/07 03:12:11;;;;;;;7.03;1.17;;;14.30;99.90;;;;;;5012259;28;20049;-73
2024/04/07 03:14:36;;;;;;;2.05;1.10;;;14.40;99.90;;;;;;5027449;28;20036;-72
2024/04/07 03:17:02;;;;;;;1.85;0.85;;;14.30;99.90;;;;;;5027353;28;20038;-73
2024/04/07 03:19:28;;;;;;;5.30;1.13;;;14.20;99.90;;;;;;5010735;28;20062;-73
2024/04/07 03:21:54;;;;;;;3.80;1.52;;;14.20;99.90;;;;;;5027230;28;20521;-73
2024/04/07 03:24:19;;;;;;;6.90;1.77;;;14.00;99.90;;;;;;5010751;28;20024;-73
2024/04/07 03:26:45;;;;;;;4.20;1.30;;;13.90;99.90;;;;;;5012230;28;20643;-72
2024/04/07 03:29:10;;;;;;;5.50;1.65;;;13.80;99.90;;;;;;5010678;28;20407;-74
2024/04/07 03:31:36;;;;;;;5.20;1.55;;;13.60;99.90;;;;;;5027150;28;20407;-74
2024/04/07 03:34:02;;;;;;;3.55;1.73;;;13.60;99.90;;;;;;5012000;28;20754;-74
2024/04/07 03:36:28;;;;;;;3.42;1.05;;;13.50;99.90;;;;;;5010621;28;20624;-74
2024/04/07 03:38:53;;;;;;;2.25;1.00;;;13.30;99.90;;;;;;5011812;28;20021;-74
2024/04/07 03:41:19;;;;;;;4.72;1.30;;;13.30;99.90;;;;;;5011685;28;20091;-74
2024/04/07 03:43:45;;;;;;;;;;;13.20;99.90;;;;;;5010934;28;20129;-73
2024/04/07 03:46:10;;;;;;;2.47;0.90;;;13.20;99.90;;;;;;5010347;28;20290;-73
2024/04/07 03:48:36;;;;;;;;;;;13.10;99.90;;;;;;5027242;28;20451;-73
2024/04/07 03:51:05;;;;;;;4.50;1.33;;;13.10;99.90;;;;;;5011576;28;20008;-74
2024/04/07 03:53:31;;;;;;;3.38;1.13;;;13.10;99.90;;;;;;5011373;28;20099;-73
2024/04/07 03:55:57;;;;;;;;;;;13.00;99.90;;;;;;5012040;28;20022;-73
2024/04/07 03:58:22;;;;;;;35.13;17.35;;;13.00;99.90;;;;;;5011309;28;19905;-73
2024/04/07 04:00:48;;;;;;;;;;;13.00;99.90;;;;;;5010671;28;20033;-72
2024/04/07 04:03:13;;;;;;;67.20;33.50;;;12.90;99.90;;;;;;5010056;28;20549;-72
2024/04/07 04:05:39;;;;;;;39.58;17.92;;;12.80;99.90;;;;;;5011270;28;20037;-73
2024/04/07 04:08:05;;;;;;;16.15;7.70;;;12.80;99.90;;;;;;5010852;28;20026;-73
2024/04/07 04:10:30;;;;;;;;;;;12.80;99.90;;;;;;5027024;28;20032;-72
2024/04/07 04:12:56;;;;;;;5.93;2.55;;;12.90;99.90;;;;;;5011247;28;20378;-73
2024/04/07 04:15:22;;;;;;;6.38;2.33;;;13.00;99.90;;;;;;5009874;28;20414;-73
2024/04/07 04:17:47;;;;;;;3.28;1.35;;;13.10;99.90;;;;;;5011149;28;20026;-73
2024/04/07 04:20:13;;;;;;;3.35;1.40;;;13.10;99.90;;;;;;5010867;28;20068;-74
2024/04/07 04:22:43;;;;;;;3.25;1.20;;;13.20;99.90;;;;;;5026073;28;20429;-73
2024/04/07 04:25:09;;;;;;;2.45;1.00;;;13.30;99.90;;;;;;5009588;28;20491;-73
2024/04/07 04:27:34;;;;;;;;;;;13.30;99.90;;;;;;5011582;28;20049;-72
2024/04/07 04:30:00;;;;;;;3.88;1.23;;;13.30;99.90;;;;;;5026173;28;19994;-72
2024/04/07 04:32:25;;;;;;;3.90;1.40;;;13.30;99.90;;;;;;5008964;28;20029;-71
2024/04/07 04:34:51;;;;;;;;;;;13.30;99.90;;;;;;5011082;28;20033;-74
2024/04/07 04:37:18;;;;;;;3.15;1.33;;;13.40;99.90;;;;;;5025910;28;19907;-73
2024/04/07 04:39:43;;;;;;;4.25;2.05;;;13.50;99.90;;;;;;5025825;28;20029;-73
2024/04/07 04:42:09;;;;;;;5.95;2.45;;;13.50;99.90;;;;;;5025381;28;20169;-72
2024/04/07 04:44:35;;;;;;;9.77;3.90;;;13.50;99.90;;;;;;5010629;28;20084;-72
2024/04/07 04:47:00;;;;;;;5.80;2.95;;;13.60;99.90;;;;;;5025884;28;20034;-73
2024/04/07 04:49:26;;;;;;;4.68;2.90;;;13.70;99.90;;;;;;5010334;28;20018;-73
2024/04/07 04:51:54;;;;;;;3.97;2.30;;;13.90;99.90;;;;;;5010156;28;20497;-73
2024/04/07 04:54:19;;;;;;;3.92;2.70;;;14.20;99.90;;;;;;5010363;28;20112;-74
2024/04/07 04:56:45;;;;;;;5.90;3.33;;;14.50;99.90;;;;;;5010266;28;20069;-72
2024/04/07 04:59:11;;;;;;;5.25;2.40;;;14.60;99.90;;;;;;5009022;28;20108;-73
2024/04/07 05:01:36;;;;;;;5.90;2.55;;;14.90;99.90;;;;;;5010316;28;20040;-72
2024/04/07 05:04:02;;;;;;;4.63;2.65;;;15.20;99.90;;;;;;5008603;28;20033;-73
2024/04/07 05:06:28;;;;;;;7.43;3.17;;;15.40;99.90;;;;;;5009984;28;20476;-72
2024/04/07 05:08:54;;;;;;;7.60;2.58;;;15.60;99.90;;;;;;5008658;28;20040;-72
2024/04/07 05:11:20;;;;;;;3.85;1.88;;;15.80;99.90;;;;;;5008665;28;20558;-73
2024/04/07 05:13:45;;;;;;;8.40;1.80;;;16.10;99.90;;;;;;5008627;28;20065;-73
2024/04/07 05:16:12;;;;;;;4.22;1.77;;;16.30;99.90;;;;;;5010044;28;20021;-72
2024/04/07 05:18:39;;;;;;;4.38;1.38;;;16.50;99.90;;;;;;5008135;28;20137;-73
2024/04/07 05:21:09;;;;;;;4.20;1.67;;;16.80;99.90;;;;;;5008149;28;20026;-73
2024/04/07 05:23:44;;;;;;;5.13;2.15;;;16.90;99.90;;;;;;5009646;28;20109;-72
2024/04/07 05:26:16;;;;;;;5.88;1.08;;;17.00;99.90;;;;;;5010205;28;20041;-73
2024/04/07 05:28:42;;;;;;;6.53;1.52;;;17.00;99.90;;;;;;5025366;28;20026;-73
2024/04/07 05:31:11;;;;;;;6.18;1.85;;;17.00;99.90;;;;;;5008634;28;20384;-73
2024/04/07 05:33:38;;;;;;;3.75;1.92;;;17.00;99.90;;;;;;5008511;28;20064;-73
2024/04/07 05:36:04;;;;;;;4.95;2.30;;;17.00;99.90;;;;;;5008553;28;20022;-73
2024/04/07 05:38:30;;;;;;;13.23;2.92;;;17.10;99.90;;;;;;5009849;28;20475;-73
2024/04/07 05:40:57;;;;;;;4.95;2.53;;;17.30;99.90;;;;;;5024620;28;20049;-72
2024/04/07 05:43:23;;;;;;;5.03;2.90;;;17.50;99.90;;;;;;5009725;28;20037;-73
2024/04/07 05:45:50;;;;;;;7.72;4.10;;;17.60;99.90;;;;;;5008325;28;20025;-74
2024/04/07 05:48:16;;;;;;;7.75;2.50;;;17.80;99.90;;;;;;5008533;28;20048;-72
2024/04/07 05:50:41;;;;;;;8.02;3.33;;;18.10;99.90;;;;;;5009560;28;20479;-73
2024/04/07 05:53:07;;;;;;;8.73;3.38;;;18.40;99.90;;;;;;5009612;28;20033;-72
2024/04/07 05:55:36;;;;;;;9.32;2.78;;;18.80;99.90;;;;;;5008304;28;20026;-73
2024/04/07 05:58:02;;;;;;;6.25;2.63;;;19.20;99.90;;;;;;5008261;28;20485;-72
2024/04/07 06:00:30;;;;;;;9.88;3.30;;;19.40;99.90;;;;;;5008226;28;20103;-73
2024/04/07 06:02:55;;;;;;;13.93;3.97;;;19.70;99.90;;;;;;5007884;28;20045;-74
2024/04/07 06:05:21;;;;;;;9.95;4.45;;;19.90;98.60;;;;;;5009274;28;20029;-74
2024/04/07 06:07:49;;;;;;;5.60;2.20;;;20.10;97.80;;;;;;5009388;28;20034;-74
2024/04/07 06:10:14;;;;;;;5.07;1.83;;;20.30;95.80;;;;;;5009385;28;20489;-74
2024/04/07 06:12:40;;;;;;;6.28;1.95;;;20.10;95.70;;;;;;5008041;28;20030;-73
2024/04/07 06:15:06;;;;;;;3.90;1.73;;;20.00;95.70;;;;;;5008125;28;20038;-73
2024/04/07 06:17:32;;;;;;;4.15;1.70;;;20.00;95.80;;;;;;5008084;28;20402;-72
2024/04/07 06:19:57;;;;;;;6.63;2.08;;;20.10;95.50;;;;;;5024447;28;20442;-74
2024/04/07 06:22:23;;;;;;;6.00;2.00;;;20.30;94.90;;;;;;5009330;28;20052;-73
2024/04/07 06:24:48;;;;;;;3.45;1.40;;;20.50;94.50;;;;;;5009579;28;20098;-73
2024/04/07 06:27:14;;;;;;;4.93;1.35;;;20.90;93.60;;;;;;5008469;28;20038;-74
2024/04/07 06:29:40;;;;;;;5.10;1.80;;;21.20;92.90;;;;;;5009958;28;20413;-74
2024/04/07 06:32:06;;;;;;;6.30;1.50;;;21.40;91.80;;;;;;5028422;28;20061;-74
2024/04/07 06:34:31;;;;;;;5.18;1.50;;;21.60;91.10;;;;;;5013391;28;20432;-73
2024/04/07 06:36:57;;;;;;;4.10;1.63;;;22.00;89.40;;;;;;5012789;28;20033;-73
2024/04/07 06:39:22;;;;;;;5.40;1.77;;;22.20;86.90;;;;;;5013096;28;20057;-73
2024/04/07 06:41:48;;;;;;;7.88;1.80;;;22.30;85.40;;;;;;5028093;28;20037;-74
2024/04/07 06:44:14;;;;;;;5.35;1.40;;;22.40;83.50;;;;;;5012762;28;20041;-74
2024/04/07 06:46:39;;;;;;;3.28;1.50;;;22.30;82.20;;;;;;5011288;28;20038;-74
2024/04/07 06:49:05;;;;;;;4.93;1.58;;;22.40;82.20;;;;;;5012733;28;20479;-74
2024/04/07 06:51:31;;;;;;;3.15;1.45;;;22.60;80.60;;;;;;5012785;28;20049;-74
2024/04/07 06:54:00;;;;;;;6.65;1.60;;;22.80;78.60;;;;;;5012730;28;20160;-75
2024/04/07 06:56:25;;;;;;;5.95;1.40;;;23.10;78.20;;;;;;5011165;28;20068;-74
2024/04/07 06:58:51;;;;;;;2.97;1.40;;;23.40;75.80;;;;;;5011394;28;20061;-74
2024/04/07 07:01:17;;;;;;;5.80;2.33;;;23.70;74.10;;;;;;5012386;28;20522;-73
2024/04/07 07:03:43;;;;;;;5.88;1.60;;;24.00;71.80;;;;;;5012428;28;20022;-73
2024/04/07 07:06:13;;;;;;;8.45;1.85;;;24.30;69.80;;;;;;5011025;28;20069;-75
2024/04/07 07:08:42;;;;;;;5.03;1.45;;;24.20;69.50;;;;;;5012363;28;20104;-73
2024/04/07 07:11:09;;;;;;;3.45;1.58;;;24.30;68.80;;;;;;5012317;28;20026;-75
2024/04/07 07:13:42;;;;;;;3.90;1.25;;;24.30;68.40;;;;;;5011010;28;20113;-74
2024/04/07 07:16:08;;;;;;;2.30;1.17;;;24.60;66.50;;;;;;5012033;28;20079;-74
2024/04/07 07:18:34;;;;;;;4.28;1.45;;;24.70;66.90;;;;;;5010908;28;20061;-74
2024/04/07 07:21:00;;;;;;;3.17;1.40;;;25.00;63.50;;;;;;5012107;28;20064;-74
2024/04/07 07:23:26;;;;;;;6.75;1.63;;;25.10;61.40;;;;;;5027022;28;20025;-74
2024/04/07 07:25:53;;;;;;;5.50;1.33;;;24.90;61.70;;;;;;5010578;28;20452;-74
2024/04/07 07:28:19;;;;;;;4.18;1.15;;;25.00;61.70;;;;;;5027071;28;20040;-74
2024/04/07 07:30:45;;;;;;;2.63;1.02;;;25.20;60.20;;;;;;5012035;28;20022;-74
2024/04/07 07:33:11;;;;;;;4.10;1.30;;;25.30;58.90;;;;;;5011747;28;20076;-75
2024/04/07 07:35:42;;;;;;;3.65;1.52;;;25.10;59.80;;;;;;5027025;28;20029;-74
2024/04/07 07:38:08;;;;;;;8.90;1.42;;;25.30;59.70;;;;;;5010627;28;20124;-74
2024/04/07 07:40:34;;;;;;;6.45;1.35;;;25.60;56.90;;;;;;5011754;28;20033;-74
2024/04/07 07:43:00;;;;;;;3.28;1.33;;;25.60;57.90;;;;;;5009379;28;20041;-74
2024/04/07 07:45:25;;;;;;;3.13;1.30;;;25.80;57.30;;;;;;5011623;28;20022;-74
2024/04/07 07:47:54;;;;;;;3.78;1.40;;;25.90;56.50;;;;;;5011548;28;20030;-74
2024/04/07 07:50:20;;;;;;;4.90;1.35;;;26.20;54.20;;;;;;5010401;28;20053;-74
2024/04/07 07:52:46;;;;;;;3.38;1.15;;;26.10;53.80;;;;;;5011512;28;20033;-75
2024/04/07 07:55:13;;;;;;;7.28;2.08;;;25.90;52.50;;;;;;5010195;28;20522;-74
2024/04/07 07:57:38;;;;;;;4.10;1.65;;;25.80;54.90;;;;;;5026702;28;20124;-74
2024/04/07 08:00:05;;;;;;;7.75;2.10;;;25.80;55.20;;;;;;5026618;28;20523;-75
2024/04/07 08:02:33;;;;;;;11.32;1.70;;;25.90;56.20;;;;;;5026362;28;20141;-73
2024/04/07 08:04:59;;;;;;;7.72;2.22;;;26.10;56.30;;;;;;5011287;28;20084;-74
2024/04/07 08:07:25;;;;;;;6.80;2.58;;;26.60;55.50;;;;;;5011343;28;20025;-74
2024/04/07 08:09:50;;;;;;;6.60;2.22;;;27.20;55.80;;;;;;5011399;28;20037;-74
2024/04/07 08:12:16;;;;;;;6.13;2.60;;;27.80;52.70;;;;;;5026380;28;20133;-74
2024/04/07 08:14:41;;;;;;;6.70;2.28;;;28.10;50.70;;;;;;5011170;28;20050;-75
2024/04/07 08:17:08;;;;;;;4.88;2.10;;;27.80;51.40;;;;;;5026405;28;20041;-74
2024/04/07 08:19:34;;;;;;;7.30;2.33;;;27.70;51.60;;;;;;5011027;28;20533;-74
2024/04/07 08:21:59;;;;;;;4.63;1.77;;;27.90;49.80;;;;;;5009449;28;20030;-75
2024/04/07 08:24:25;;;;;;;8.90;2.03;;;27.90;50.50;;;;;;5010668;28;20410;-74
2024/04/07 08:26:51;;;;;;;7.60;2.20;;;27.90;50.50;;;;;;5010922;28;20033;-74
2024/04/07 08:29:18;;;;;;;6.63;2.08;;;28.40;50.70;;;;;;5010822;28;20030;-74
2024/04/07 08:31:43;;;;;;;9.55;2.40;;;28.80;49.80;;;;;;5009307;28;20037;-74
2024/04/07 08:34:09;;;;;;;4.97;1.75;;;29.00;48.50;;;;;;5009251;28;20384;-74
2024/04/07 08:36:35;;;;;;;6.78;2.13;;;28.90;49.50;;;;;;5009165;28;20399;-73
2024/04/07 08:39:00;;;;;;;6.95;1.85;;;28.90;49.30;;;;;;5010598;28;20036;-73
2024/04/07 08:41:26;;;;;;;8.23;2.22;;;28.90;48.00;;;;;;5010707;28;20046;-73
2024/04/07 08:43:53;;;;;;;4.28;1.45;;;28.70;48.30;;;;;;5010594;28;20021;-75
2024/04/07 08:46:20;;;;;;;4.43;1.45;;;28.70;48.80;;;;;;5025591;28;20104;-74
2024/04/07 08:48:50;;;;;;;5.63;1.90;;;28.80;49.00;;;;;;5010458;28;20018;-74
2024/04/07 08:51:16;;;;;;;9.43;1.75;;;28.90;47.70;;;;;;5010595;28;20026;-74
2024/04/07 08:53:43;;;;;;;6.90;2.55;;;28.70;47.20;;;;;;5010399;28;20064;-73
2024/04/07 08:56:11;;;;;;;9.00;2.25;;;28.50;48.40;;;;;;5025382;28;20034;-74
2024/04/07 08:58:37;;;;;;;8.15;1.65;;;28.30;49.10;;;;;;5010234;28;20038;-73
2024/04/07 09:01:04;;;;;;;6.93;1.50;;;28.00;49.00;;;;;;5010162;28;20021;-74
2024/04/07 09:03:30;;;;;;;6.43;1.92;;;27.70;48.80;;;;;;5008867;28;20453;-74
2024/04/07 09:05:57;;;;;;;6.30;1.67;;;27.40;48.90;;;;;;5025353;28;20117;-74
2024/04/07 09:08:24;;;;;;;6.60;1.77;;;27.30;48.80;;;;;;5010178;28;20056;-73
2024/04/07 09:10:49;;;;;;;8.70;1.73;;;27.20;48.80;;;;;;5009898;28;20033;-73
2024/04/07 09:13:18;;;;;;;4.15;1.95;;;27.00;49.40;;;;;;5010238;28;20085;-74
2024/04/07 09:15:44;;;;;;;5.55;2.22;;;26.80;50.10;;;;;;5010067;28;20029;-73
2024/04/07 09:18:13;;;;;;;4.75;1.80;;;26.70;50.10;;;;;;5024933;28;20022;-74
2024/04/07 09:20:39;;;;;;;7.97;2.13;;;26.60;50.40;;;;;;5025226;28;20506;-75
2024/04/07 09:23:05;;;;;;;6.15;1.92;;;26.40;50.00;;;;;;5008498;28;20045;-72
2024/04/07 09:25:32;;;;;;;5.70;2.00;;;26.50;51.30;;;;;;5009852;28;20042;-74
2024/04/07 09:27:59;;;;;;;3.88;1.35;;;26.70;50.50;;;;;;5010081;28;20030;-75
2024/04/07 09:30:25;;;;;;;4.30;1.38;;;26.90;48.50;;;;;;5024949;28;20036;-74
2024/04/07 09:32:51;;;;;;;5.97;2.03;;;27.10;49.20;;;;;;5009885;28;20104;-74
2024/04/07 09:35:17;;;;;;;12.55;2.08;;;26.90;50.40;;;;;;5009839;28;20458;-74
2024/04/07 09:37:43;;;;;;;9.65;2.03;;;26.90;50.50;;;;;;5009826;28;20022;-74
2024/04/07 09:40:09;;;;;;;3.95;1.50;;;26.80;50.60;;;;;;5008193;28;20034;-74
2024/04/07 09:42:39;;;;;;;3.30;1.52;;;27.00;50.30;;;;;;5008530;28;20052;-74
2024/04/07 09:45:09;;;;;;;5.43;1.80;;;27.00;49.30;;;;;;5009607;28;20026;-74
2024/04/07 09:47:39;;;;;;;3.95;1.67;;;26.70;49.90;;;;;;5008401;28;20034;-74
2024/04/07 09:50:08;;;;;;;7.90;2.25;;;27.10;50.30;;;;;;5008327;28;20475;-74
2024/04/07 09:52:40;;;;;;;5.43;1.70;;;27.20;49.70;;;;;;5009496;28;20585;-74
2024/04/07 09:55:11;;;;;;;6.13;1.50;;;26.80;50.00;;;;;;5008549;28;20026;-74
2024/04/07 09:57:37;;;;;;;7.03;1.50;;;27.00;49.70;;;;;;5009645;28;20034;-73
2024/04/07 10:00:10;;;;;;;3.83;1.40;;;27.10;49.80;;;;;;5024550;28;20380;-75
2024/04/07 10:02:37;;;;;;;3.88;1.40;;;27.10;49.00;;;;;;5009380;28;20066;-74
2024/04/07 10:05:05;;;;;;;5.75;1.30;;;27.20;48.80;;;;;;5009893;28;20022;-76
2024/04/07 10:07:35;;;;;;;5.95;1.83;;;27.30;49.50;;;;;;5012165;28;20029;-74
2024/04/07 10:10:04;;;;;;;4.70;1.85;;;27.60;47.60;;;;;;5012365;28;20049;-73
2024/04/07 10:12:30;;;;;;;4.40;1.40;;;27.60;46.90;;;;;;5013568;28;20025;-75
2024/04/07 10:14:56;;;;;;;4.72;1.60;;;27.80;47.30;;;;;;5011996;28;20053;-74
2024/04/07 10:17:23;;;;;;;7.03;1.15;;;27.70;46.80;;;;;;5013346;28;20065;-73
2024/04/07 10:19:50;;;;;;;4.38;1.38;;;27.80;48.00;;;;;;5013049;28;20455;-74
2024/04/07 10:22:17;;;;;;;5.25;1.45;;;27.70;47.20;;;;;;5013161;28;20037;-74
2024/04/07 10:24:46;;;;;;;5.07;1.70;;;27.60;47.10;;;;;;5013218;28;20026;-74
2024/04/07 10:27:12;;;;;;;6.28;1.17;;;27.50;46.40;;;;;;5011758;28;20033;-76
2024/04/07 10:29:40;;;;;;;9.48;1.58;;;27.10;46.90;;;;;;5013082;28;20104;-75
2024/04/07 10:32:25;;;;;;;3.15;1.30;;;26.90;48.30;;;;;;5012890;28;20033;-74
2024/04/07 10:35:22;;;;;;;8.20;1.50;;;27.10;47.50;;;;;;5012981;28;20026;-74
2024/04/07 10:37:50;;;;;;;;;;;26.70;47.90;;;;;;5017691;28;20042;-74
2024/04/07 10:40:17;;;;;;;5.32;1.42;;;26.40;48.80;;;;;;5028036;28;19942;-74
2024/04/07 10:42:43;;;;;;;2.35;0.90;;;26.10;49.30;;;;;;5012775;28;20076;-75
2024/04/07 10:45:11;;;;;;;3.28;1.48;;;25.90;49.10;;;;;;5012767;28;20029;-74
2024/04/07 10:47:37;;;;;;;5.40;1.27;;;25.80;50.00;;;;;;5012803;28;20034;-75
2024/04/07 10:50:04;;;;;;;5.03;1.15;;;25.60;51.10;;;;;;5011152;28;20018;-74
2024/04/07 10:52:31;;;;;;;7.20;1.25;;;25.50;51.20;;;;;;5012597;28;20572;-74
2024/04/07 10:54:57;;;;;;;3.80;1.30;;;25.30;51.90;;;;;;5012570;28;20025;-75
2024/04/07 10:57:23;;;;;;;6.43;1.45;;;25.30;51.00;;;;;;5011259;28;20103;-73
2024/04/07 10:59:49;;;;;;;5.72;1.60;;;25.10;51.80;;;;;;5012424;28;20038;-75
2024/04/07 11:02:15;;;;;;;3.72;1.10;;;24.80;52.20;;;;;;5011103;28;20052;-75
2024/04/07 11:04:41;;;;;;;4.82;1.45;;;24.50;52.40;;;;;;5012356;28;20036;-75
2024/04/07 11:07:09;;;;;;;2.75;1.10;;;24.50;52.20;;;;;;5012192;28;20025;-74
2024/04/07 11:09:34;;;;;;;4.30;1.27;;;24.40;52.80;;;;;;5012287;28;20022;-75
2024/04/07 11:12:00;;;;;;;3.33;1.50;;;24.50;54.20;;;;;;5012194;28;20117;-74
2024/04/07 11:14:28;;;;;;;6.97;1.10;;;24.60;53.50;;;;;;5010918;28;20037;-75
2024/04/07 11:16:55;;;;;;;2.55;1.00;;;24.50;53.60;;;;;;5009693;28;20052;-75
2024/04/07 11:19:24;;;;;;;5.95;1.02;;;24.40;53.30;;;;;;5010854;28;20390;-75
2024/04/07 11:21:51;;;;;;;6.05;1.30;;;24.30;53.90;;;;;;5010632;28;20162;-75
2024/04/07 11:24:20;;;;;;;2.28;0.90;;;24.20;54.00;;;;;;5011902;28;20054;-74
2024/04/07 11:26:49;;;;;;;1.95;0.73;;;24.20;54.10;;;;;;5010646;28;20116;-75
2024/04/07 11:29:16;;;;;;;3.38;1.20;;;24.10;54.10;;;;;;5012003;28;20038;-75
2024/04/07 11:31:49;;;;;;;3.35;0.70;;;24.10;53.90;;;;;;5011715;28;20106;-74
2024/04/07 11:34:14;;;;;;;2.45;0.90;;;24.10;54.50;;;;;;5010490;28;20740;-75
2024/04/07 11:36:40;;;;;;;3.42;1.05;;;24.20;55.40;;;;;;5011698;28;20053;-75
2024/04/07 11:39:06;;;;;;;3.55;1.20;;;24.40;53.90;;;;;;5011532;28;20487;-73
2024/04/07 11:41:31;;;;;;;8.15;0.95;;;24.30;53.70;;;;;;5010288;28;20026;-74
2024/04/07 11:43:57;;;;;;;5.63;0.90;;;24.20;54.00;;;;;;5011804;28;20046;-74
2024/04/07 11:46:23;;;;;;;5.05;0.88;;;24.10;55.10;;;;;;5010117;28;20117;-74
2024/04/07 11:48:48;;;;;;;4.22;1.17;;;24.00;54.20;;;;;;5010111;28;20065;-75
2024/04/07 11:51:16;;;;;;;2.55;0.70;;;24.10;55.10;;;;;;5011238;28;20022;-75
2024/04/07 11:53:46;;;;;;;4.68;1.00;;;24.10;54.40;;;;;;5026320;28;20367;-75
2024/04/07 11:56:12;;;;;;;2.75;1.02;;;24.20;54.30;;;;;;5011498;28;20053;-75
2024/04/07 11:58:37;;;;;;;23.92;1.92;;;24.20;54.50;;;;;;5010199;28;20034;-75
2024/04/07 12:01:03;;;;;;;4.97;1.00;;;24.20;54.60;;;;;;5011307;28;20021;-75
2024/04/07 12:03:29;;;;;;;1.52;0.68;;;24.30;54.00;;;;;;5011316;28;20036;-75
2024/04/07 12:05:54;;;;;;;12.82;2.55;;;24.20;53.70;;;;;;5009958;28;20029;-75
2024/04/07 12:08:20;;;;;;;2.53;0.73;;;24.20;53.70;;;;;;5005744;28;20026;-74
2024/04/07 12:10:46;;;;;;;2.17;0.70;;;24.10;53.20;;;;;;5011269;28;20061;-74
2024/04/07 12:13:12;;;;;;;3.80;1.00;;;24.10;53.50;;;;;;5009652;28;20033;-74
2024/04/07 12:15:37;;;;;;;3.25;1.10;;;24.20;53.50;;;;;;5009817;28;20034;-75
2024/04/07 12:18:03;;;;;;;3.42;0.90;;;24.20;52.90;;;;;;5011033;28;20022;-74
2024/04/07 12:20:29;;;;;;;2.97;0.90;;;24.30;53.90;;;;;;5010980;28;20038;-76
2024/04/07 12:22:54;;;;;;;4.20;0.90;;;24.40;53.50;;;;;;5010905;28;20050;-74
2024/04/07 12:25:22;;;;;;;3.10;0.90;;;24.40;53.20;;;;;;5010545;28;20026;-74
2024/04/07 12:27:48;;;;;;;8.10;0.90;;;24.20;53.10;;;;;;5010534;28;20072;-75
2024/04/07 12:30:14;;;;;;;1.90;0.70;;;24.10;52.90;;;;;;5010631;28;20105;-74
2024/04/07 12:32:39;;;;;;;3.17;1.23;;;24.00;54.10;;;;;;5010877;28;20034;-75
2024/04/07 12:35:06;;;;;;;2.53;1.00;;;23.90;54.20;;;;;;5010613;28;20023;-74
2024/04/07 12:37:31;;;;;;;3.25;0.98;;;23.80;54.70;;;;;;5025766;28;20125;-75
2024/04/07 12:39:57;;;;;;;1.48;0.70;;;23.80;55.20;;;;;;5010582;28;20097;-74
2024/04/07 12:42:23;;;;;;;2.45;0.90;;;23.80;55.50;;;;;;5009249;28;20042;-74
2024/04/07 12:44:48;;;;;;;3.40;0.80;;;23.90;55.10;;;;;;5010295;28;20026;-75
2024/04/07 12:47:20;;;;;;;4.65;0.80;;;24.10;54.80;;;;;;5010540;28;20034;-75
2024/04/07 12:49:45;;;;;;;2.42;0.85;;;24.20;54.00;;;;;;5010223;28;20545;-75
2024/04/07 12:52:11;;;;;;;3.55;0.93;;;24.20;53.20;;;;;;5010305;28;20446;-74